createdAt,value
2022-11-05T00:00:30.977Z,15.03
2022-11-05T00:03:15.800Z,15.05
2022-11-05T00:06:03.455Z,15.04
2022-11-05T00:08:51.521Z,15.03
2022-11-05T00:11:18.575Z,15.03
2022-11-05T00:14:17.559Z,15.04
2022-11-05T00:16:44.047Z,15.04
2022-11-05T00:19:10.629Z,15.03
2022-11-05T00:21:58.207Z,15.04
2022-11-05T00:24:43.702Z,15.01
2022-11-05T00:27:10.936Z,14.99
2022-11-05T00:29:37.775Z,15.00
2022-11-05T00:32:04.538Z,14.98
2022-11-05T00:34:30.959Z,14.97
2022-11-05T00:36:57.536Z,14.94
2022-11-05T00:39:23.969Z,14.95
2022-11-05T00:42:10.532Z,14.94
2022-11-05T00:44:55.546Z,14.93
2022-11-05T00:47:40.590Z,14.88
2022-11-05T00:50:07.460Z,14.88
2022-11-05T00:52:54.381Z,14.85
2022-11-05T00:55:25.335Z,14.86
2022-11-05T00:57:52.051Z,14.83
2022-11-05T01:00:18.859Z,14.81
2022-11-05T01:02:45.906Z,14.78
2022-11-05T01:05:13.278Z,14.79
2022-11-05T01:07:40.198Z,14.82
2022-11-05T01:10:06.939Z,14.88
2022-11-05T01:12:33.604Z,14.80
2022-11-05T01:15:00.416Z,14.83
2022-11-05T01:17:26.854Z,14.81
2022-11-05T01:19:56.355Z,14.87
2022-11-05T01:22:25.052Z,14.84
2022-11-05T01:24:51.601Z,14.80
2022-11-05T01:27:18.151Z,14.83
2022-11-05T01:29:44.715Z,14.83
2022-11-05T01:32:11.206Z,14.79
2022-11-05T01:34:37.695Z,14.77
2022-11-05T01:37:04.392Z,14.82
2022-11-05T01:39:30.892Z,14.75
2022-11-05T01:41:58.839Z,14.72
2022-11-05T01:44:56.240Z,14.68
2022-11-05T01:47:41.590Z,14.67
2022-11-05T01:50:35.706Z,14.71
2022-11-05T01:53:25.271Z,14.70
2022-11-05T01:55:54.956Z,14.66
2022-11-05T01:58:24.271Z,14.66
2022-11-05T02:00:51.105Z,14.63
2022-11-05T02:03:18.605Z,14.67
2022-11-05T02:05:46.857Z,14.67
2022-11-05T02:08:26.080Z,14.61
2022-11-05T02:10:52.813Z,14.63
2022-11-05T02:13:19.241Z,14.62
2022-11-05T02:15:45.646Z,14.61
2022-11-05T02:18:32.568Z,14.55
2022-11-05T02:21:20.856Z,14.55
2022-11-05T02:24:24.835Z,14.55
2022-11-05T02:27:18.249Z,14.52
2022-11-05T02:29:44.626Z,14.53
2022-11-05T02:32:40.603Z,14.50
2022-11-05T02:35:30.647Z,14.50
2022-11-05T02:38:16.869Z,14.49
2022-11-05T02:40:43.407Z,14.55
2022-11-05T02:43:25.239Z,14.52
2022-11-05T02:46:10.621Z,14.46
2022-11-05T02:48:55.765Z,14.42
2022-11-05T02:51:46.456Z,14.42
2022-11-05T02:54:20.304Z,14.40
2022-11-05T02:56:54.652Z,14.39
2022-11-05T02:59:21.136Z,14.43
2022-11-05T03:01:53.087Z,14.41
2022-11-05T03:04:22.300Z,14.39
2022-11-05T03:07:17.453Z,14.40
2022-11-05T03:10:05.479Z,14.41
2022-11-05T03:12:59.283Z,14.39
2022-11-05T03:15:29.440Z,14.38
2022-11-05T03:18:06.197Z,14.43
2022-11-05T03:20:56.759Z,14.43
2022-11-05T03:23:27.178Z,14.44
2022-11-05T03:26:05.806Z,14.43
2022-11-05T03:28:36.423Z,14.41
2022-11-05T03:31:05.518Z,14.36
2022-11-05T03:33:34.390Z,14.40
2022-11-05T03:36:05.802Z,14.41
2022-11-05T03:38:36.480Z,14.43
2022-11-05T03:41:10.156Z,14.44
2022-11-05T03:43:40.812Z,14.43
2022-11-05T03:46:12.216Z,14.37
2022-11-05T03:48:44.406Z,14.34
2022-11-05T03:51:34.047Z,14.39
2022-11-05T03:54:03.422Z,14.37
2022-11-05T03:56:40.211Z,14.33
2022-11-05T03:59:09.379Z,14.39
2022-11-05T04:01:38.412Z,14.34
2022-11-05T04:04:06.325Z,14.32
2022-11-05T04:06:51.579Z,14.26
2022-11-05T04:09:36.808Z,14.27
2022-11-05T04:12:29.818Z,14.30
2022-11-05T04:14:57.292Z,14.30
2022-11-05T04:17:23.879Z,14.27
2022-11-05T04:20:08.760Z,14.29
2022-11-05T04:22:54.421Z,14.19
2022-11-05T04:25:22.042Z,14.21
2022-11-05T04:27:51.587Z,14.25
2022-11-05T04:30:19.278Z,14.25
2022-11-05T04:33:17.233Z,14.28
2022-11-05T04:35:48.859Z,14.22
2022-11-05T04:38:18.442Z,14.29
2022-11-05T04:40:46.127Z,14.34
2022-11-05T04:43:16.612Z,14.26
2022-11-05T04:45:44.179Z,14.18
2022-11-05T04:48:11.507Z,14.20
2022-11-05T04:50:38.300Z,14.21
2022-11-05T04:53:04.722Z,14.23
2022-11-05T04:55:31.283Z,14.29
2022-11-05T04:57:57.731Z,14.27
2022-11-05T05:00:27.445Z,14.41
2022-11-05T05:02:53.990Z,14.24
2022-11-05T05:05:22.537Z,14.54
2022-11-05T05:07:55.645Z,14.39
2022-11-05T05:10:22.127Z,14.85
2022-11-05T05:12:51.660Z,14.61
2022-11-05T05:15:18.301Z,14.35
2022-11-05T05:17:44.780Z,14.28
2022-11-05T05:20:29.839Z,14.30
2022-11-05T05:22:56.412Z,14.29
2022-11-05T05:25:23.160Z,14.24
2022-11-05T05:27:49.744Z,14.29
2022-11-05T05:30:19.033Z,14.23
2022-11-05T05:32:45.495Z,14.31
2022-11-05T05:35:12.118Z,14.50
2022-11-05T05:37:38.704Z,14.35
2022-11-05T05:40:05.426Z,14.43
2022-11-05T05:42:32.652Z,14.51
2022-11-05T05:45:00.274Z,14.45
2022-11-05T05:47:26.817Z,14.59
2022-11-05T05:49:53.723Z,14.46
2022-11-05T05:52:20.159Z,14.41
2022-11-05T05:54:46.635Z,14.42
2022-11-05T05:57:13.205Z,14.49
2022-11-05T05:59:39.759Z,14.38
2022-11-05T06:02:06.250Z,14.32
2022-11-05T06:04:32.725Z,14.37
2022-11-05T06:06:59.231Z,14.59
2022-11-05T06:09:25.652Z,14.47
2022-11-05T06:11:55.220Z,14.43
2022-11-05T06:14:21.941Z,14.48
2022-11-05T06:16:49.932Z,14.47
2022-11-05T06:19:17.492Z,14.44
2022-11-05T06:21:44.029Z,14.47
2022-11-05T06:24:10.720Z,14.40
2022-11-05T06:26:42.679Z,14.32
2022-11-05T06:29:10.613Z,14.30
2022-11-05T06:31:37.145Z,14.29
2022-11-05T06:34:03.781Z,14.32
2022-11-05T06:36:30.455Z,14.31
2022-11-05T06:38:56.889Z,14.33
2022-11-05T06:41:23.840Z,14.42
2022-11-05T06:43:50.654Z,14.50
2022-11-05T06:46:17.605Z,14.41
2022-11-05T06:48:44.016Z,14.34
2022-11-05T06:51:10.513Z,14.32
2022-11-05T06:53:36.992Z,14.42
2022-11-05T06:56:07.542Z,14.33
2022-11-05T06:58:34.474Z,14.32
2022-11-05T07:01:08.612Z,14.29
2022-11-05T07:03:35.960Z,14.33
2022-11-05T07:06:03.358Z,14.39
2022-11-05T07:08:34.764Z,14.39
2022-11-05T07:11:01.346Z,14.44
2022-11-05T07:13:27.862Z,14.95
2022-11-05T07:15:56.944Z,14.68
2022-11-05T07:18:23.713Z,14.70
2022-11-05T07:20:50.275Z,14.53
2022-11-05T07:23:21.182Z,14.51
2022-11-05T07:25:49.745Z,14.52
2022-11-05T07:28:17.383Z,14.75
2022-11-05T07:30:43.941Z,14.97
2022-11-05T07:33:10.816Z,14.91
2022-11-05T07:35:37.416Z,15.00
2022-11-05T07:38:03.885Z,15.34
2022-11-05T07:40:30.535Z,15.52
2022-11-05T07:42:58.935Z,16.11
2022-11-05T07:45:27.248Z,16.48
2022-11-05T07:48:01.876Z,16.70
2022-11-05T07:50:31.055Z,16.68
2022-11-05T07:53:06.181Z,16.65
2022-11-05T07:55:33.382Z,16.77
2022-11-05T07:57:59.905Z,17.03
2022-11-05T08:00:27.685Z,17.31
2022-11-05T08:03:07.112Z,17.57
2022-11-05T08:05:39.016Z,17.73
2022-11-05T08:08:08.013Z,17.81
2022-11-05T08:10:35.336Z,17.80
2022-11-05T08:13:02.062Z,17.82
2022-11-05T08:15:28.721Z,17.97
2022-11-05T08:18:06.052Z,18.03
2022-11-05T08:20:33.706Z,18.07
2022-11-05T08:23:00.232Z,18.13
2022-11-05T08:25:29.464Z,18.18
2022-11-05T08:28:01.561Z,18.23
2022-11-05T08:30:28.681Z,18.27
2022-11-05T08:33:06.139Z,18.32
2022-11-05T08:35:34.561Z,18.35
2022-11-05T08:38:03.056Z,18.40
2022-11-05T08:40:35.480Z,18.43
2022-11-05T08:43:04.502Z,18.45
2022-11-05T08:45:31.735Z,18.46
2022-11-05T08:48:14.927Z,18.52
2022-11-05T08:50:42.261Z,18.54
2022-11-05T08:53:10.327Z,18.56
2022-11-05T08:55:38.692Z,18.60
2022-11-05T08:58:09.996Z,18.61
2022-11-05T09:00:37.341Z,18.62
2022-11-05T09:03:06.917Z,18.64
2022-11-05T09:05:40.749Z,18.65
2022-11-05T09:08:08.543Z,18.67
2022-11-05T09:10:35.177Z,18.68
2022-11-05T09:13:01.980Z,18.71
2022-11-05T09:15:29.747Z,18.75
2022-11-05T09:17:56.411Z,18.75
2022-11-05T09:20:23.265Z,18.80
2022-11-05T09:22:50.506Z,18.80
2022-11-05T09:25:19.838Z,18.79
2022-11-05T09:27:46.331Z,18.82
2022-11-05T09:30:13.454Z,18.82
2022-11-05T09:32:40.324Z,18.82
2022-11-05T09:35:07.563Z,18.82
2022-11-05T09:37:34.618Z,18.84
2022-11-05T09:40:01.095Z,18.81
2022-11-05T09:42:40.191Z,18.80
2022-11-05T09:45:18.979Z,18.77
2022-11-05T09:48:12.393Z,18.74
2022-11-05T09:50:41.168Z,18.75
2022-11-05T09:53:11.183Z,18.76
2022-11-05T09:55:50.793Z,18.80
2022-11-05T09:58:28.674Z,18.81
2022-11-05T10:00:59.439Z,18.82
2022-11-05T10:03:30.181Z,18.82
2022-11-05T10:06:07.864Z,18.81
2022-11-05T10:08:46.602Z,18.81
2022-11-05T10:11:40.803Z,18.81
2022-11-05T10:14:23.479Z,18.75
2022-11-05T10:16:59.971Z,18.71
2022-11-05T10:19:38.176Z,18.74
2022-11-05T10:22:13.801Z,18.69
2022-11-05T10:24:42.821Z,18.62
2022-11-05T10:27:19.977Z,18.60
2022-11-05T10:29:52.915Z,18.54
2022-11-05T10:32:31.279Z,18.48
2022-11-05T10:35:00.849Z,18.42
2022-11-05T10:37:28.919Z,18.39
2022-11-05T10:39:55.745Z,18.37
2022-11-05T10:42:38.944Z,18.39
2022-11-05T10:45:32.282Z,18.42
2022-11-05T10:48:26.424Z,18.43
2022-11-05T10:50:53.832Z,18.42
2022-11-05T10:53:24.947Z,18.45
2022-11-05T10:55:51.952Z,18.44
2022-11-05T10:58:27.449Z,18.44
2022-11-05T11:00:57.160Z,18.43
2022-11-05T11:03:38.867Z,18.39
2022-11-05T11:06:23.224Z,18.36
2022-11-05T11:08:51.459Z,18.33
2022-11-05T11:11:42.262Z,18.37
2022-11-05T11:14:12.322Z,18.38
2022-11-05T11:16:41.951Z,18.39
2022-11-05T11:19:20.671Z,18.39
2022-11-05T11:22:10.960Z,18.41
2022-11-05T11:24:43.471Z,18.27
2022-11-05T11:27:14.727Z,18.17
2022-11-05T11:29:49.136Z,18.17
2022-11-05T11:32:18.202Z,18.23
2022-11-05T11:34:48.972Z,18.19
2022-11-05T11:37:19.992Z,18.07
2022-11-05T11:39:54.646Z,18.17
2022-11-05T11:42:33.603Z,18.83
2022-11-05T11:45:05.195Z,18.98
2022-11-05T11:47:33.076Z,19.10
2022-11-05T11:50:01.475Z,19.17
2022-11-05T11:52:33.371Z,19.09
2022-11-05T11:55:12.109Z,19.17
2022-11-05T11:57:54.213Z,18.97
2022-11-05T12:00:24.305Z,19.00
2022-11-05T12:03:05.703Z,19.16
2022-11-05T12:06:01.161Z,18.85
2022-11-05T12:08:59.345Z,18.76
2022-11-05T12:11:40.221Z,18.70
2022-11-05T12:14:26.945Z,18.56
2022-11-05T12:17:14.528Z,18.59
2022-11-05T12:19:50.339Z,18.26
2022-11-05T12:22:42.803Z,18.63
2022-11-05T12:25:22.691Z,18.91
2022-11-05T12:28:20.926Z,18.87
2022-11-05T12:30:49.557Z,18.82
2022-11-05T12:33:43.859Z,19.15
2022-11-05T12:36:35.598Z,19.23
2022-11-05T12:39:20.684Z,18.97
2022-11-05T12:42:13.574Z,18.82
2022-11-05T12:44:59.331Z,18.63
2022-11-05T12:47:54.663Z,18.46
2022-11-05T12:50:45.463Z,18.36
2022-11-05T12:53:27.210Z,18.56
2022-11-05T12:55:54.942Z,18.59
2022-11-05T12:58:30.596Z,18.55
2022-11-05T13:01:23.288Z,18.62
2022-11-05T13:03:59.115Z,18.74
2022-11-05T13:06:38.830Z,18.41
2022-11-05T13:09:20.009Z,18.43
2022-11-05T13:12:10.346Z,18.34
2022-11-05T13:14:42.308Z,18.31
2022-11-05T13:17:18.143Z,18.51
2022-11-05T13:20:11.746Z,18.38
2022-11-05T13:22:52.672Z,18.20
2022-11-05T13:25:28.737Z,18.31
2022-11-05T13:28:05.139Z,18.21
2022-11-05T13:30:41.475Z,18.06
2022-11-05T13:33:15.598Z,18.14
2022-11-05T13:36:20.623Z,18.06
2022-11-05T13:39:00.108Z,17.98
2022-11-05T13:41:41.022Z,17.97
2022-11-05T13:44:38.189Z,18.11
2022-11-05T13:47:07.744Z,18.11
2022-11-05T13:49:41.525Z,18.24
2022-11-05T13:52:41.971Z,18.23
2022-11-05T13:55:33.314Z,18.10
2022-11-05T13:58:30.386Z,17.99
2022-11-05T14:01:26.975Z,18.15
2022-11-05T14:03:56.693Z,17.84
2022-11-05T14:06:33.293Z,17.90
2022-11-05T14:09:03.474Z,18.00
2022-11-05T14:11:36.206Z,17.97
2022-11-05T14:14:09.701Z,17.89
2022-11-05T14:17:08.478Z,17.83
2022-11-05T14:20:03.176Z,17.89
2022-11-05T14:22:32.542Z,17.78
2022-11-05T14:25:19.321Z,17.84
2022-11-05T14:27:51.806Z,17.94
2022-11-05T14:30:45.073Z,17.73
2022-11-05T14:33:26.542Z,17.89
2022-11-05T14:36:13.891Z,17.96
2022-11-05T14:38:48.797Z,18.09
2022-11-05T14:41:15.627Z,18.10
2022-11-05T14:44:04.796Z,18.00
2022-11-05T14:46:46.729Z,18.17
2022-11-05T14:49:21.623Z,18.01
2022-11-05T14:51:51.033Z,17.72
2022-11-05T14:54:20.504Z,17.55
2022-11-05T14:56:57.250Z,17.36
2022-11-05T14:59:23.673Z,17.39
2022-11-05T15:01:50.305Z,17.45
2022-11-05T15:04:26.238Z,17.50
2022-11-05T15:07:02.073Z,17.50
2022-11-05T15:09:43.834Z,17.28
2022-11-05T15:12:22.043Z,17.36
2022-11-05T15:15:27.900Z,17.39
2022-11-05T15:18:27.010Z,17.31
2022-11-05T15:21:00.661Z,17.43
2022-11-05T15:23:36.219Z,17.45
2022-11-05T15:26:13.676Z,17.22
2022-11-05T15:28:47.025Z,17.18
2022-11-05T15:31:13.482Z,17.17
2022-11-05T15:33:41.353Z,17.15
2022-11-05T15:36:10.790Z,17.10
2022-11-05T15:38:37.466Z,16.93
2022-11-05T15:41:12.389Z,17.07
2022-11-05T15:43:49.899Z,17.10
2022-11-05T15:46:20.029Z,17.11
2022-11-05T15:48:52.895Z,17.13
2022-11-05T15:51:21.751Z,17.02
2022-11-05T15:54:15.608Z,17.01
2022-11-05T15:56:47.988Z,16.91
2022-11-05T15:59:20.343Z,16.94
2022-11-05T16:01:58.084Z,16.93
2022-11-05T16:04:31.089Z,16.89
2022-11-05T16:07:01.595Z,16.57
2022-11-05T16:09:31.386Z,16.41
2022-11-05T16:12:14.686Z,16.26
2022-11-05T16:14:42.346Z,16.29
2022-11-05T16:17:37.940Z,16.69
2022-11-05T16:20:21.733Z,16.83
2022-11-05T16:22:50.997Z,16.90
2022-11-05T16:25:44.204Z,16.96
2022-11-05T16:28:23.924Z,16.94
2022-11-05T16:31:00.286Z,16.90
2022-11-05T16:33:32.566Z,16.92
2022-11-05T16:35:59.199Z,16.93
2022-11-05T16:38:25.882Z,17.08
2022-11-05T16:40:52.751Z,17.08
2022-11-05T16:43:24.549Z,17.14
2022-11-05T16:45:58.746Z,17.13
2022-11-05T16:48:26.262Z,17.07
2022-11-05T16:50:56.021Z,17.10
2022-11-05T16:53:23.063Z,16.96
2022-11-05T16:55:49.760Z,16.94
2022-11-05T16:58:23.888Z,17.01
2022-11-05T17:00:53.667Z,17.03
2022-11-05T17:03:20.116Z,17.03
2022-11-05T17:05:47.008Z,17.04
2022-11-05T17:08:14.385Z,17.01
2022-11-05T17:10:41.075Z,17.02
2022-11-05T17:13:14.266Z,16.94
2022-11-05T17:15:43.766Z,16.98
2022-11-05T17:18:16.943Z,17.06
2022-11-05T17:20:53.076Z,16.98
2022-11-05T17:23:21.964Z,16.99
2022-11-05T17:25:54.584Z,16.92
2022-11-05T17:28:22.413Z,16.92
2022-11-05T17:30:55.352Z,16.94
2022-11-05T17:33:23.440Z,16.88
2022-11-05T17:35:50.951Z,16.92
2022-11-05T17:38:21.854Z,16.88
2022-11-05T17:40:51.424Z,16.92
2022-11-05T17:43:18.948Z,16.88
2022-11-05T17:45:51.988Z,16.88
2022-11-05T17:48:20.137Z,16.88
2022-11-05T17:50:49.129Z,16.95
2022-11-05T17:53:17.839Z,16.90
2022-11-05T17:55:45.701Z,16.86
2022-11-05T17:58:12.824Z,17.00
2022-11-05T18:00:40.596Z,17.34
2022-11-05T18:03:07.291Z,17.29
2022-11-05T18:05:34.585Z,17.32
2022-11-05T18:08:01.431Z,17.28
2022-11-05T18:10:28.016Z,17.23
2022-11-05T18:12:54.516Z,17.14
2022-11-05T18:15:21.104Z,17.10
2022-11-05T18:17:48.024Z,17.11
2022-11-05T18:20:19.454Z,17.03
2022-11-05T18:22:51.599Z,17.03
2022-11-05T18:25:18.604Z,16.94
2022-11-05T18:27:45.272Z,17.00
2022-11-05T18:30:14.140Z,16.97
2022-11-05T18:32:41.209Z,16.99
2022-11-05T18:35:08.180Z,16.97
2022-11-05T18:37:36.591Z,16.98
2022-11-05T18:40:03.134Z,16.96
2022-11-05T18:42:29.624Z,17.00
2022-11-05T18:44:56.122Z,16.94
2022-11-05T18:47:22.565Z,16.98
2022-11-05T18:49:49.131Z,17.00
2022-11-05T18:52:15.983Z,17.00
2022-11-05T18:54:42.689Z,16.92
2022-11-05T18:57:09.127Z,16.91
2022-11-05T18:59:38.214Z,16.88
2022-11-05T19:02:07.568Z,16.89
2022-11-05T19:04:37.420Z,16.97
2022-11-05T19:07:05.675Z,16.91
2022-11-05T19:09:34.423Z,16.87
2022-11-05T19:12:01.757Z,16.80
2022-11-05T19:14:30.148Z,16.76
2022-11-05T19:16:57.925Z,16.71
2022-11-05T19:19:24.780Z,16.74
2022-11-05T19:21:51.555Z,16.78
2022-11-05T19:24:18.323Z,16.74
2022-11-05T19:26:46.953Z,16.78
2022-11-05T19:29:13.630Z,16.68
2022-11-05T19:31:40.169Z,16.75
2022-11-05T19:34:06.685Z,16.74
2022-11-05T19:36:34.233Z,16.73
2022-11-05T19:39:06.521Z,16.76
2022-11-05T19:41:33.572Z,16.77
2022-11-05T19:44:01.811Z,16.79
2022-11-05T19:46:30.065Z,16.73
2022-11-05T19:48:57.287Z,16.77
2022-11-05T19:51:29.588Z,16.80
2022-11-05T19:53:56.715Z,16.83
2022-11-05T19:56:29.669Z,16.79
2022-11-05T19:58:56.699Z,16.85
2022-11-05T20:01:24.748Z,16.84
2022-11-05T20:03:53.247Z,16.79
2022-11-05T20:06:23.236Z,16.74
2022-11-05T20:11:37.812Z,16.79
2022-11-05T20:14:05.520Z,16.75
2022-11-05T20:16:42.828Z,16.74
2022-11-05T20:19:13.700Z,16.72
2022-11-05T20:21:40.289Z,16.73
2022-11-05T20:24:07.648Z,16.72
2022-11-05T20:26:34.306Z,16.72
2022-11-05T20:29:00.879Z,16.72
2022-11-05T20:31:41.881Z,16.70
2022-11-05T20:34:09.003Z,16.71
2022-11-05T20:36:35.467Z,16.72
2022-11-05T20:39:02.964Z,16.73
2022-11-05T20:41:30.803Z,16.70
2022-11-05T20:43:57.616Z,16.71
2022-11-05T20:46:24.714Z,16.69
2022-11-05T20:48:51.543Z,16.69
2022-11-05T20:51:20.832Z,16.66
2022-11-05T20:53:48.697Z,16.69
2022-11-05T20:56:20.727Z,16.68
2022-11-05T20:58:50.121Z,16.67
2022-11-05T21:01:20.406Z,16.69
2022-11-05T21:03:47.885Z,16.68
2022-11-05T21:06:15.201Z,16.67
2022-11-05T21:08:41.858Z,16.27
2022-11-05T21:11:08.979Z,16.07
2022-11-05T21:13:36.570Z,16.07
2022-11-05T21:16:05.961Z,16.01
2022-11-05T21:18:35.738Z,15.98
2022-11-05T21:21:07.428Z,15.89
2022-11-05T21:23:34.463Z,15.73
2022-11-05T21:26:05.910Z,15.86
2022-11-05T21:28:33.585Z,15.80
2022-11-05T21:31:02.457Z,15.94
2022-11-05T21:33:29.636Z,15.96
2022-11-05T21:35:56.441Z,15.79
2022-11-05T21:38:26.276Z,15.72
2022-11-05T21:40:52.757Z,15.67
2022-11-05T21:43:19.262Z,15.85
2022-11-05T21:45:45.847Z,15.77
2022-11-05T21:48:15.273Z,15.80
2022-11-05T21:51:01.027Z,15.65
2022-11-05T21:53:46.686Z,15.74
2022-11-05T21:56:40.686Z,15.71
2022-11-05T21:59:29.959Z,15.70
2022-11-05T22:02:01.643Z,15.52
2022-11-05T22:04:36.028Z,15.42
2022-11-05T22:07:03.349Z,15.59
2022-11-05T22:09:29.917Z,15.38
2022-11-05T22:11:57.387Z,15.50
2022-11-05T22:14:24.208Z,15.62
2022-11-05T22:16:52.784Z,15.67
2022-11-05T22:19:19.988Z,15.75
2022-11-05T22:21:49.333Z,15.58
2022-11-05T22:24:18.902Z,15.57
2022-11-05T22:26:46.336Z,15.55
2022-11-05T22:29:13.842Z,15.39
2022-11-05T22:31:40.558Z,15.30
2022-11-05T22:34:08.013Z,15.26
2022-11-05T22:36:35.437Z,15.21
2022-11-05T22:39:03.498Z,15.14
2022-11-05T22:41:30.178Z,15.12
2022-11-05T22:43:57.673Z,15.13
2022-11-05T22:46:26.662Z,15.24
2022-11-05T22:48:58.324Z,15.18
2022-11-05T22:51:27.562Z,15.20
2022-11-05T22:53:54.919Z,15.10
2022-11-05T22:56:24.066Z,15.19
2022-11-05T22:58:50.922Z,15.29
2022-11-05T23:01:18.708Z,15.36
2022-11-05T23:03:46.921Z,15.45
2022-11-05T23:06:36.444Z,15.20
2022-11-05T23:09:35.766Z,15.16
2022-11-05T23:12:05.752Z,15.33
2022-11-05T23:14:32.375Z,15.27
2022-11-05T23:17:20.861Z,15.32
2022-11-05T23:20:05.631Z,15.30
2022-11-05T23:22:51.142Z,15.28
2022-11-05T23:25:22.472Z,15.33
2022-11-05T23:27:51.344Z,15.32
2022-11-05T23:30:25.654Z,15.26
2022-11-05T23:32:52.972Z,15.24
2022-11-05T23:35:39.899Z,15.32
2022-11-05T23:38:25.273Z,15.29
2022-11-05T23:41:10.158Z,15.37
2022-11-05T23:43:55.525Z,15.30
2022-11-05T23:46:40.488Z,15.40
2022-11-05T23:49:08.260Z,15.28
2022-11-05T23:51:34.894Z,15.43
2022-11-05T23:54:01.524Z,15.36
2022-11-05T23:56:28.006Z,15.41
2022-11-05T23:58:54.577Z,15.20
